Time;durP1;ratioP1;P1;durP2;ratioP2;P2;SDS_P1;SDS_P2;PMS_P1;PMS_P2;Temp;Humidity;BMP_temperature;BMP_pressure;BME280_temperature;BME280_humidity;BME280_pressure;Samples;Min_cycle;Max_cycle;Signal;HPM_P1;HPM_P2
2021/05/11 00:01:29;;;;;;;8.07;1.07;;;;;;;;;;5076817;28;20345;-60
2021/05/11 00:03:59;;;;;;;3.70;1.50;;;;;;;;;;5069406;28;20253;-60
2021/05/11 00:06:25;;;;;;;0.83;0.83;;;;;;;;;;5073967;28;20171;-61
2021/05/11 00:08:57;;;;;;;0.90;0.23;;;;;;;;;;5073622;28;20182;-61
2021/05/11 00:11:28;;;;;;;1.03;1.00;;;;;;;;;;5079206;28;20187;-60
2021/05/11 00:13:55;;;;;;;4.07;1.13;;;;;;;;;;5075471;28;20182;-61
2021/05/11 00:16:21;;;;;;;0.00;0.00;;;;;;;;;;5071421;28;20227;-61
2021/05/11 00:18:48;;;;;;;0.10;0.10;;;;;;;;;;5077249;28;20201;-61
2021/05/11 00:21:14;;;;;;;6.43;2.93;;;;;;;;;;5073048;28;20210;-61
2021/05/11 00:23:42;;;;;;;0.00;0.00;;;;;;;;;;5071924;28;20265;-61
2021/05/11 00:26:09;;;;;;;0.00;0.00;;;;;;;;;;5075656;28;20189;-61
2021/05/11 00:28:35;;;;;;;0.03;0.03;;;;;;;;;;5074343;28;20196;-61
2021/05/11 00:31:02;;;;;;;1.83;0.97;;;;;;;;;;5072607;28;20189;-61
2021/05/11 00:33:29;;;;;;;0.20;0.20;;;;;;;;;;5077039;28;20225;-61
2021/05/11 00:35:55;;;;;;;1.03;0.77;;;;;;;;;;5072677;28;20186;-61
2021/05/11 00:38:23;;;;;;;0.00;0.00;;;;;;;;;;5071559;28;21123;-60
2021/05/11 00:40:50;;;;;;;0.57;0.50;;;;;;;;;;5066565;28;20233;-60
2021/05/11 00:43:16;;;;;;;0.00;0.00;;;;;;;;;;5072239;28;20776;-61
2021/05/11 00:45:44;;;;;;;2.00;0.43;;;;;;;;;;5072444;28;20178;-61
2021/05/11 00:48:11;;;;;;;5.30;0.30;;;;;;;;;;5067690;28;20190;-60
2021/05/11 00:50:38;;;;;;;2.90;1.50;;;;;;;;;;5069054;28;20666;-61
2021/05/11 00:53:05;;;;;;;0.00;0.00;;;;;;;;;;5073091;28;20263;-61
2021/05/11 00:55:31;;;;;;;0.47;0.47;;;;;;;;;;5074374;28;20279;-61
2021/05/11 00:57:59;;;;;;;0.20;0.20;;;;;;;;;;5073502;28;20280;-61
2021/05/11 01:00:26;;;;;;;0.10;0.10;;;;;;;;;;5080840;28;20216;-61
2021/05/11 01:02:54;;;;;;;1.40;0.33;;;;;;;;;;5079484;28;20266;-61
2021/05/11 01:05:21;;;;;;;0.93;0.50;;;;;;;;;;5071401;28;20182;-61
2021/05/11 01:07:48;;;;;;;0.10;0.10;;;;;;;;;;5068527;28;20185;-61
2021/05/11 01:10:15;;;;;;;1.97;0.67;;;;;;;;;;5075299;28;20185;-61
2021/05/11 01:12:42;;;;;;;0.20;0.20;;;;;;;;;;5074021;28;20232;-61
2021/05/11 01:15:10;;;;;;;0.63;0.63;;;;;;;;;;5071586;28;20193;-61
2021/05/11 01:17:38;;;;;;;0.67;0.67;;;;;;;;;;5072347;28;20191;-61
2021/05/11 01:20:14;;;;;;;3.40;1.60;;;;;;;;;;5070673;28;20221;-61
2021/05/11 01:22:53;;;;;;;0.00;0.00;;;;;;;;;;5076086;28;20636;-61
2021/05/11 01:25:24;;;;;;;0.83;0.83;;;;;;;;;;5080382;28;20272;-61
2021/05/11 01:28:11;;;;;;;2.33;0.73;;;;;;;;;;5077419;28;20303;-61
2021/05/11 14:16:32;;;;;;;0.00;0.00;;;;;;;;;;5078589;27;20600;-61
2021/05/11 14:18:58;;;;;;;0.47;0.47;;;;;;;;;;5067793;28;20187;-61
2021/05/11 14:21:25;;;;;;;13.60;2.03;;;;;;;;;;5056762;28;20720;-61
2021/05/11 14:23:55;;;;;;;0.50;0.37;;;;;;;;;;5060844;28;20178;-61
2021/05/11 14:26:22;;;;;;;10.90;1.03;;;;;;;;;;5055645;28;20195;-61
2021/05/11 14:28:49;;;;;;;0.87;0.67;;;;;;;;;;5058059;28;20731;-61
2021/05/11 14:31:16;;;;;;;0.37;0.37;;;;;;;;;;5067624;28;20191;-61
2021/05/11 14:33:43;;;;;;;0.40;0.13;;;;;;;;;;5055869;28;20186;-61
2021/05/11 14:36:10;;;;;;;1.07;0.20;;;;;;;;;;5057736;28;20230;-61
2021/05/11 14:38:37;;;;;;;0.00;0.00;;;;;;;;;;5056112;28;20190;-61
2021/05/11 14:41:04;;;;;;;2.10;0.30;;;;;;;;;;5064908;28;20183;-60
2021/05/11 14:43:32;;;;;;;0.93;0.67;;;;;;;;;;5061183;28;20188;-61
2021/05/11 14:45:59;;;;;;;10.57;9.53;;;;;;;;;;5055476;28;20188;-61
2021/05/11 14:48:26;;;;;;;7.73;6.43;;;;;;;;;;5062285;28;20270;-61
2021/05/11 14:50:53;;;;;;;0.07;0.03;;;;;;;;;;5058563;28;20179;-61
2021/05/11 14:53:19;;;;;;;0.00;0.00;;;;;;;;;;5055398;28;20197;-61
2021/05/11 14:55:46;;;;;;;4.13;0.93;;;;;;;;;;5065433;28;20664;-61
2021/05/11 14:58:13;;;;;;;1.47;0.60;;;;;;;;;;5074594;28;20312;-61
2021/05/11 15:00:39;;;;;;;0.13;0.13;;;;;;;;;;5062919;28;20182;-61
2021/05/11 15:03:06;;;;;;;0.00;0.00;;;;;;;;;;5071681;28;20227;-61
2021/05/11 15:05:33;;;;;;;5.50;1.13;;;;;;;;;;5069414;28;20618;-61
2021/05/11 15:07:59;;;;;;;24.27;1.20;;;;;;;;;;5068776;28;20232;-61
2021/05/11 15:10:26;;;;;;;1.63;0.97;;;;;;;;;;5066435;28;20955;-61
2021/05/11 15:12:53;;;;;;;2.53;0.60;;;;;;;;;;5072842;28;20243;-61
2021/05/11 15:15:21;;;;;;;0.07;0.07;;;;;;;;;;5062731;28;20273;-61
2021/05/11 15:20:16;;;;;;;0.93;0.27;;;;;;;;;;5069196;28;20541;-61
2021/05/11 15:22:43;;;;;;;0.00;0.00;;;;;;;;;;5068722;28;20182;-60
2021/05/11 15:25:10;;;;;;;1.53;0.47;;;;;;;;;;5070876;28;20392;-61
2021/05/11 15:27:36;;;;;;;0.00;0.00;;;;;;;;;;5062640;28;20766;-61
2021/05/11 15:30:07;;;;;;;1.20;0.43;;;;;;;;;;5052427;28;20185;-60
2021/05/11 15:32:49;;;;;;;5.20;0.30;;;;;;;;;;5047295;28;20184;-61
2021/05/11 15:35:17;;;;;;;1.60;0.30;;;;;;;;;;5058892;28;20963;-61
2021/05/11 15:37:46;;;;;;;0.00;0.00;;;;;;;;;;5059171;28;20174;-61
2021/05/11 15:40:15;;;;;;;0.00;0.00;;;;;;;;;;5057667;28;20176;-62
2021/05/11 15:42:41;;;;;;;0.10;0.10;;;;;;;;;;5059597;28;20192;-61
2021/05/11 15:45:09;;;;;;;0.00;0.00;;;;;;;;;;5052755;28;20429;-61
2021/05/11 15:47:51;;;;;;;0.00;0.00;;;;;;;;;;5041197;28;20183;-61
2021/05/11 15:50:18;;;;;;;0.00;0.00;;;;;;;;;;5052733;28;20179;-61
2021/05/11 15:52:45;;;;;;;1.80;0.93;;;;;;;;;;5057985;28;20189;-61
2021/05/11 15:55:12;;;;;;;0.00;0.00;;;;;;;;;;5053416;28;20214;-62
2021/05/11 15:57:39;;;;;;;0.00;0.00;;;;;;;;;;5056069;28;20171;-61
2021/05/11 16:00:06;;;;;;;0.00;0.00;;;;;;;;;;5056049;28;20604;-61
2021/05/11 16:02:33;;;;;;;0.20;0.10;;;;;;;;;;5056048;28;20184;-61
2021/05/11 16:04:59;;;;;;;0.33;0.10;;;;;;;;;;5057892;28;20192;-61
2021/05/11 16:07:26;;;;;;;0.93;0.10;;;;;;;;;;5054106;28;21020;-61
2021/05/11 16:09:54;;;;;;;1.07;0.43;;;;;;;;;;5052597;28;20188;-61
2021/05/11 16:12:21;;;;;;;0.40;0.40;;;;;;;;;;5055605;28;20200;-61
2021/05/11 16:14:48;;;;;;;0.10;0.10;;;;;;;;;;5052896;28;20272;-61
2021/05/11 16:17:15;;;;;;;0.13;0.13;;;;;;;;;;5051812;28;20699;-61
2021/05/11 16:19:41;;;;;;;0.00;0.00;;;;;;;;;;5045296;28;20215;-61
2021/05/11 16:22:08;;;;;;;0.40;0.17;;;;;;;;;;5048020;28;20209;-61
2021/05/11 16:24:35;;;;;;;0.27;0.27;;;;;;;;;;5044451;28;20210;-61
2021/05/11 16:27:01;;;;;;;16.17;0.83;;;;;;;;;;5050530;28;20205;-60
2021/05/11 16:29:28;;;;;;;2.17;0.30;;;;;;;;;;5041881;28;20845;-62
2021/05/11 16:31:54;;;;;;;0.53;0.33;;;;;;;;;;5050774;28;21012;-61
2021/05/11 16:34:21;;;;;;;4.80;0.73;;;;;;;;;;5043209;28;20191;-61
2021/05/11 16:36:48;;;;;;;0.23;0.23;;;;;;;;;;5043339;28;20833;-61
2021/05/11 16:39:15;;;;;;;0.00;0.00;;;;;;;;;;5052320;28;20237;-61
2021/05/11 16:41:41;;;;;;;9.17;1.13;;;;;;;;;;5057359;28;20180;-60
2021/05/11 16:44:08;;;;;;;0.00;0.00;;;;;;;;;;5055024;28;20182;-61
2021/05/11 16:46:35;;;;;;;0.00;0.00;;;;;;;;;;5056680;28;20730;-61
2021/05/11 16:49:02;;;;;;;0.00;0.00;;;;;;;;;;5056462;28;20626;-62
2021/05/11 16:51:28;;;;;;;0.00;0.00;;;;;;;;;;5053708;28;21421;-61
2021/05/11 16:53:55;;;;;;;0.00;0.00;;;;;;;;;;5039318;28;20200;-61
2021/05/11 16:56:21;;;;;;;0.00;0.00;;;;;;;;;;5053236;28;20222;-61
2021/05/11 16:58:48;;;;;;;0.00;0.00;;;;;;;;;;5058424;28;20179;-60
2021/05/11 17:01:16;;;;;;;2.43;0.50;;;;;;;;;;5054330;28;20176;-61
2021/05/11 17:03:42;;;;;;;0.40;0.40;;;;;;;;;;5045508;28;20208;-61
2021/05/11 17:06:09;;;;;;;0.20;0.20;;;;;;;;;;5049023;28;20628;-60
2021/05/11 17:08:36;;;;;;;0.33;0.30;;;;;;;;;;5045075;28;20188;-61
2021/05/11 17:11:02;;;;;;;0.00;0.00;;;;;;;;;;5045987;28;20183;-61
2021/05/11 17:13:29;;;;;;;0.93;0.93;;;;;;;;;;5039421;28;20653;-61
2021/05/11 17:15:56;;;;;;;1.77;0.77;;;;;;;;;;5041103;28;20261;-61
2021/05/11 17:18:22;;;;;;;0.00;0.00;;;;;;;;;;5047460;28;20478;-61
2021/05/11 17:20:49;;;;;;;0.00;0.00;;;;;;;;;;5045232;28;20597;-61
2021/05/11 17:23:16;;;;;;;1.40;0.00;;;;;;;;;;5058077;28;20175;-60
2021/05/11 17:25:44;;;;;;;0.00;0.00;;;;;;;;;;5049899;28;20299;-61
2021/05/11 17:28:12;;;;;;;0.00;0.00;;;;;;;;;;5055099;28;20213;-61
2021/05/11 17:30:40;;;;;;;0.57;0.33;;;;;;;;;;5048946;28;20265;-61
2021/05/11 17:33:07;;;;;;;0.00;0.00;;;;;;;;;;5039171;28;20261;-61
2021/05/11 17:35:34;;;;;;;0.23;0.23;;;;;;;;;;5051988;28;21146;-61
2021/05/11 17:38:02;;;;;;;0.50;0.00;;;;;;;;;;5057980;28;20264;-61
2021/05/11 17:40:29;;;;;;;0.27;0.27;;;;;;;;;;5054479;28;20176;-61
2021/05/11 17:42:59;;;;;;;1.37;0.53;;;;;;;;;;5050538;28;20171;-61
2021/05/11 17:45:27;;;;;;;0.30;0.30;;;;;;;;;;5038692;28;20617;-61
2021/05/11 17:48:00;;;;;;;0.33;0.30;;;;;;;;;;5052683;28;20195;-61
2021/05/11 17:50:28;;;;;;;0.10;0.10;;;;;;;;;;5040906;28;20278;-61
2021/05/11 17:52:58;;;;;;;0.00;0.00;;;;;;;;;;5054031;28;20205;-61
2021/05/11 17:55:25;;;;;;;1.50;0.33;;;;;;;;;;5046475;28;20213;-61
2021/05/11 17:57:51;;;;;;;0.33;0.33;;;;;;;;;;5051882;28;20287;-62
2021/05/11 18:00:19;;;;;;;18.77;0.77;;;;;;;;;;5048887;28;20247;-61
2021/05/11 18:02:46;;;;;;;0.00;0.00;;;;;;;;;;5057635;28;20181;-61
2021/05/11 18:05:13;;;;;;;0.00;0.00;;;;;;;;;;5050936;28;20237;-61
2021/05/11 18:07:39;;;;;;;0.00;0.00;;;;;;;;;;5051145;28;20196;-61
2021/05/11 18:10:07;;;;;;;1.70;0.40;;;;;;;;;;5052155;28;20933;-61
2021/05/11 18:12:34;;;;;;;0.00;0.00;;;;;;;;;;5053760;28;20649;-60
2021/05/11 18:15:00;;;;;;;0.00;0.00;;;;;;;;;;5041133;28;20235;-61
2021/05/11 18:17:27;;;;;;;2.87;0.73;;;;;;;;;;5043845;28;20179;-60
2021/05/11 18:19:53;;;;;;;3.20;0.30;;;;;;;;;;5054892;28;20191;-61
2021/05/11 18:22:22;;;;;;;1.60;0.53;;;;;;;;;;5051817;28;20231;-61
2021/05/11 18:24:48;;;;;;;0.00;0.00;;;;;;;;;;5044311;28;20191;-61
2021/05/11 18:27:16;;;;;;;0.93;0.67;;;;;;;;;;5043580;28;21059;-61
2021/05/11 18:29:43;;;;;;;0.00;0.00;;;;;;;;;;5047678;28;20267;-61
2021/05/11 18:32:10;;;;;;;0.10;0.10;;;;;;;;;;5037396;28;20192;-61
2021/05/11 18:34:38;;;;;;;1.13;0.63;;;;;;;;;;5043936;28;20762;-61
2021/05/11 18:40:10;;;;;;;0.93;0.27;;;;;;;;;;5035039;28;21040;-60
2021/05/11 18:42:37;;;;;;;2.20;0.20;;;;;;;;;;5021849;28;20243;-61
2021/05/11 18:45:04;;;;;;;0.37;0.23;;;;;;;;;;5040453;28;20196;-61
2021/05/11 18:47:31;;;;;;;0.50;0.50;;;;;;;;;;5041073;28;20184;-61
2021/05/11 18:49:58;;;;;;;0.97;0.20;;;;;;;;;;5041333;28;20192;-61
2021/05/11 18:52:24;;;;;;;0.37;0.37;;;;;;;;;;5044661;28;20208;-61
2021/05/11 18:54:53;;;;;;;0.00;0.00;;;;;;;;;;5048111;28;20293;-61
2021/05/11 18:57:20;;;;;;;0.17;0.17;;;;;;;;;;5057189;28;20187;-60
2021/05/11 18:59:46;;;;;;;2.80;0.13;;;;;;;;;;5050007;28;20193;-61
2021/05/11 19:02:13;;;;;;;0.00;0.00;;;;;;;;;;5052244;28;20245;-61
2021/05/11 19:04:40;;;;;;;0.93;0.07;;;;;;;;;;5061099;28;20265;-61
2021/05/11 19:07:08;;;;;;;0.00;0.00;;;;;;;;;;5046863;28;20199;-61
2021/05/11 19:09:34;;;;;;;4.80;0.50;;;;;;;;;;5048450;28;20186;-60
2021/05/11 19:12:01;;;;;;;0.00;0.00;;;;;;;;;;5053678;28;20187;-61
2021/05/11 19:14:28;;;;;;;0.00;0.00;;;;;;;;;;5054282;28;20311;-61
2021/05/11 19:16:55;;;;;;;0.30;0.30;;;;;;;;;;5053485;28;20680;-61
2021/05/11 19:19:23;;;;;;;5.60;1.27;;;;;;;;;;5048377;28;20838;-62
2021/05/11 19:21:50;;;;;;;0.40;0.27;;;;;;;;;;5050669;28;20180;-62
2021/05/11 19:24:18;;;;;;;1.93;1.63;;;;;;;;;;5044483;28;20181;-61
2021/05/11 19:26:45;;;;;;;1.10;1.10;;;;;;;;;;5058461;28;20224;-61
2021/05/11 19:29:12;;;;;;;0.43;0.30;;;;;;;;;;5049296;28;20210;-61
2021/05/11 19:31:39;;;;;;;0.90;0.67;;;;;;;;;;5047005;28;20198;-62
2021/05/11 19:34:09;;;;;;;1.20;0.40;;;;;;;;;;5048254;28;20811;-61
2021/05/11 19:36:38;;;;;;;6.57;0.70;;;;;;;;;;5045872;28;20202;-61
2021/05/11 19:39:10;;;;;;;0.10;0.10;;;;;;;;;;5053086;28;20192;-61
2021/05/11 19:41:37;;;;;;;0.00;0.00;;;;;;;;;;5059394;28;20581;-61
2021/05/11 19:44:04;;;;;;;1.10;0.20;;;;;;;;;;5055766;28;20218;-61
2021/05/11 19:46:31;;;;;;;0.00;0.00;;;;;;;;;;5063680;28;20300;-61
2021/05/11 19:48:57;;;;;;;0.40;0.17;;;;;;;;;;5051408;28;20184;-61
2021/05/11 19:51:24;;;;;;;0.10;0.10;;;;;;;;;;5049030;28;20206;-61
2021/05/11 19:53:51;;;;;;;0.00;0.00;;;;;;;;;;5050357;28;20202;-61
2021/05/11 19:56:17;;;;;;;0.17;0.17;;;;;;;;;;5052539;28;20203;-61
2021/05/11 19:58:44;;;;;;;2.23;1.27;;;;;;;;;;5058605;28;20191;-60
2021/05/11 20:01:10;;;;;;;0.00;0.00;;;;;;;;;;5045291;28;20846;-60
2021/05/11 20:03:37;;;;;;;0.07;0.07;;;;;;;;;;5047916;28;20718;-60
2021/05/11 20:06:04;;;;;;;0.10;0.10;;;;;;;;;;5041722;28;20331;-60
2021/05/11 20:08:32;;;;;;;1.03;0.40;;;;;;;;;;5043664;28;20187;-59
2021/05/11 20:10:59;;;;;;;0.37;0.10;;;;;;;;;;5055280;28;20221;-60
2021/05/11 20:13:25;;;;;;;0.00;0.00;;;;;;;;;;5054269;28;20189;-60
2021/05/11 20:15:52;;;;;;;0.00;0.00;;;;;;;;;;5053310;28;20238;-60
2021/05/11 20:18:19;;;;;;;0.00;0.00;;;;;;;;;;5041332;28;20868;-61
2021/05/11 20:20:45;;;;;;;0.17;0.13;;;;;;;;;;5041301;28;20744;-61
2021/05/11 20:23:12;;;;;;;0.00;0.00;;;;;;;;;;5041325;28;20195;-61
2021/05/11 20:25:39;;;;;;;0.00;0.00;;;;;;;;;;5040851;28;20219;-62
2021/05/11 20:28:06;;;;;;;0.00;0.00;;;;;;;;;;5041672;28;20191;-61
2021/05/11 20:30:33;;;;;;;0.17;0.17;;;;;;;;;;5040066;28;20191;-61
2021/05/11 20:32:59;;;;;;;0.00;0.00;;;;;;;;;;5044120;28;20191;-61
2021/05/11 20:35:27;;;;;;;0.00;0.00;;;;;;;;;;5043952;28;20203;-61
2021/05/11 20:37:58;;;;;;;0.00;0.00;;;;;;;;;;5047003;28;21050;-61
2021/05/11 20:40:27;;;;;;;0.00;0.00;;;;;;;;;;5059722;28;20189;-61
2021/05/11 20:42:53;;;;;;;0.97;0.30;;;;;;;;;;5060006;28;20270;-61
2021/05/11 20:45:20;;;;;;;0.77;0.33;;;;;;;;;;5058256;28;20700;-61
2021/05/11 20:47:55;;;;;;;0.00;0.00;;;;;;;;;;5042045;28;20211;-61
2021/05/11 20:50:22;;;;;;;0.00;0.00;;;;;;;;;;5041080;28;20342;-61
2021/05/11 20:52:49;;;;;;;0.00;0.00;;;;;;;;;;5057633;28;20186;-61
2021/05/11 20:55:16;;;;;;;0.27;0.27;;;;;;;;;;5050427;28;20293;-62
2021/05/11 20:57:42;;;;;;;0.47;0.10;;;;;;;;;;5059271;28;20230;-61
2021/05/11 21:00:09;;;;;;;0.00;0.00;;;;;;;;;;5057859;28;20206;-62
2021/05/11 21:02:36;;;;;;;0.00;0.00;;;;;;;;;;5055287;28;20788;-62
2021/05/11 21:05:03;;;;;;;0.00;0.00;;;;;;;;;;5054552;28;20186;-69
2021/05/11 21:07:31;;;;;;;0.10;0.10;;;;;;;;;;5058208;28;20187;-67
2021/05/11 21:10:02;;;;;;;0.00;0.00;;;;;;;;;;5058956;28;20202;-68
2021/05/11 21:12:29;;;;;;;1.80;0.53;;;;;;;;;;5058236;28;20207;-67
2021/05/11 21:14:57;;;;;;;0.83;0.83;;;;;;;;;;5054396;28;21173;-68
2021/05/11 21:17:24;;;;;;;0.27;0.27;;;;;;;;;;5050484;28;20452;-68
2021/05/11 21:19:53;;;;;;;0.00;0.00;;;;;;;;;;5051529;28;20683;-67
2021/05/11 21:22:20;;;;;;;0.00;0.00;;;;;;;;;;5056866;28;20175;-64
2021/05/11 21:24:47;;;;;;;0.97;0.87;;;;;;;;;;5050191;28;20207;-62
2021/05/11 21:27:14;;;;;;;0.40;0.40;;;;;;;;;;5065888;28;20178;-63
2021/05/11 21:29:41;;;;;;;0.33;0.20;;;;;;;;;;5047986;28;20183;-63
2021/05/11 21:32:08;;;;;;;0.00;0.00;;;;;;;;;;5051837;28;20194;-63
2021/05/11 21:34:35;;;;;;;0.00;0.00;;;;;;;;;;5053945;28;20202;-63
2021/05/11 21:37:02;;;;;;;0.40;0.23;;;;;;;;;;5051400;28;20427;-63
2021/05/11 21:39:29;;;;;;;0.00;0.00;;;;;;;;;;5039220;28;20180;-63
2021/05/11 21:41:56;;;;;;;0.00;0.00;;;;;;;;;;5050668;28;20538;-62
2021/05/11 21:44:23;;;;;;;1.47;1.37;;;;;;;;;;5057720;28;20696;-63
2021/05/11 21:46:50;;;;;;;0.40;0.40;;;;;;;;;;5052844;28;20194;-62
2021/05/11 21:49:16;;;;;;;0.17;0.17;;;;;;;;;;5055704;28;20596;-63
2021/05/11 21:51:44;;;;;;;0.00;0.00;;;;;;;;;;5050159;28;20239;-63
2021/05/11 21:54:11;;;;;;;0.00;0.00;;;;;;;;;;5051378;28;20179;-63
2021/05/11 21:56:37;;;;;;;0.00;0.00;;;;;;;;;;5051860;28;20308;-62
2021/05/11 21:59:05;;;;;;;2.77;0.70;;;;;;;;;;5058883;28;20198;-62
2021/05/11 22:01:34;;;;;;;0.00;0.00;;;;;;;;;;5057151;28;20179;-62
2021/05/11 22:04:01;;;;;;;0.03;0.03;;;;;;;;;;5056962;28;20281;-63
2021/05/11 22:06:29;;;;;;;0.00;0.00;;;;;;;;;;5057420;28;20189;-63
2021/05/11 22:08:55;;;;;;;0.00;0.00;;;;;;;;;;5052970;28;20447;-63
2021/05/11 22:11:23;;;;;;;0.00;0.00;;;;;;;;;;5055661;28;20266;-62
2021/05/11 22:13:52;;;;;;;0.00;0.00;;;;;;;;;;5054091;28;20179;-63
2021/05/11 22:16:19;;;;;;;0.00;0.00;;;;;;;;;;5052556;28;20269;-63
2021/05/11 22:18:45;;;;;;;0.00;0.00;;;;;;;;;;5051649;28;20829;-64
2021/05/11 22:21:13;;;;;;;0.00;0.00;;;;;;;;;;5057844;28;20182;-63
2021/05/11 22:23:40;;;;;;;0.00;0.00;;;;;;;;;;5057592;28;20175;-63
2021/05/11 22:26:08;;;;;;;0.13;0.07;;;;;;;;;;5059896;28;20193;-63
2021/05/11 22:28:36;;;;;;;0.00;0.00;;;;;;;;;;5059166;28;20189;-62
2021/05/11 22:31:04;;;;;;;0.00;0.00;;;;;;;;;;5058390;28;20560;-62
2021/05/11 22:33:32;;;;;;;0.00;0.00;;;;;;;;;;5056789;28;20217;-63
2021/05/11 22:36:03;;;;;;;0.00;0.00;;;;;;;;;;5052132;28;20213;-63
2021/05/11 22:38:31;;;;;;;0.00;0.00;;;;;;;;;;5056180;28;20309;-64
2021/05/11 22:40:59;;;;;;;0.00;0.00;;;;;;;;;;5059252;28;20185;-63
2021/05/11 22:43:29;;;;;;;0.00;0.00;;;;;;;;;;5061247;28;20182;-63
2021/05/11 22:45:55;;;;;;;0.03;0.03;;;;;;;;;;5061381;28;20217;-67
2021/05/11 22:48:22;;;;;;;0.93;0.47;;;;;;;;;;5061195;28;20340;-67
2021/05/11 22:50:50;;;;;;;0.00;0.00;;;;;;;;;;5059551;28;20329;-67
2021/05/11 22:53:18;;;;;;;0.00;0.00;;;;;;;;;;5062072;28;20214;-67
2021/05/11 22:55:49;;;;;;;0.50;0.20;;;;;;;;;;5055130;28;20201;-68
2021/05/11 22:58:16;;;;;;;0.00;0.00;;;;;;;;;;5057525;28;20182;-68
2021/05/11 23:00:43;;;;;;;0.20;0.20;;;;;;;;;;5060171;28;20532;-69
2021/05/11 23:03:10;;;;;;;0.00;0.00;;;;;;;;;;5060700;28;20528;-68
2021/05/11 23:05:37;;;;;;;0.87;0.43;;;;;;;;;;5060329;28;20761;-68
2021/05/11 23:08:04;;;;;;;0.00;0.00;;;;;;;;;;5054616;28;20563;-68
2021/05/11 23:10:31;;;;;;;0.00;0.00;;;;;;;;;;5057821;28;20727;-67
2021/05/11 23:12:58;;;;;;;0.00;0.00;;;;;;;;;;5060359;28;20194;-67
2021/05/11 23:15:29;;;;;;;2.10;0.30;;;;;;;;;;5058286;28;20782;-67
2021/05/11 23:20:32;;;;;;;0.30;0.27;;;;;;;;;;5048692;28;20667;-67
2021/05/11 23:22:59;;;;;;;4.13;0.20;;;;;;;;;;5050564;28;20181;-67
2021/05/11 23:25:26;;;;;;;0.00;0.00;;;;;;;;;;5056386;28;20193;-68
2021/05/11 23:27:53;;;;;;;0.30;0.30;;;;;;;;;;5057220;28;20195;-68
2021/05/11 23:30:22;;;;;;;0.00;0.00;;;;;;;;;;5055617;28;20190;-68
2021/05/11 23:32:49;;;;;;;0.00;0.00;;;;;;;;;;5055900;28;20976;-68
2021/05/11 23:35:16;;;;;;;0.00;0.00;;;;;;;;;;5058741;28;20208;-68
2021/05/11 23:37:43;;;;;;;0.00;0.00;;;;;;;;;;5052281;28;20256;-68
2021/05/11 23:40:13;;;;;;;0.00;0.00;;;;;;;;;;5057802;28;20281;-68
2021/05/11 23:42:40;;;;;;;0.20;0.20;;;;;;;;;;5059922;28;20552;-68
2021/05/11 23:45:08;;;;;;;1.50;0.23;;;;;;;;;;5057682;28;20513;-68
2021/05/11 23:47:34;;;;;;;0.00;0.00;;;;;;;;;;5058122;28;20207;-68
2021/05/11 23:50:03;;;;;;;2.10;0.80;;;;;;;;;;5059779;28;20290;-68
2021/05/11 23:52:31;;;;;;;0.00;0.00;;;;;;;;;;5055568;28;20214;-68
2021/05/11 23:54:58;;;;;;;0.53;0.47;;;;;;;;;;5056865;28;20299;-68
2021/05/11 23:57:25;;;;;;;0.10;0.10;;;;;;;;;;5056147;28;20508;-68
2021/05/11 23:59:51;;;;;;;0.00;0.00;;;;;;;;;;5057449;28;20189;-68
